Observation data for Dimmitt on 11/19/2019      Previous  Date  Next       Current Mesonet Observations  Soil Data  Daily Summary Page  Observations in Plain Language
KDMS 190600Z 17006KT 09/M02 A3001 RMK A01 T00901020  RH  046%=      5-min Rain = 0
KDMS 190605Z 17005KT 09/M02 A3001 RMK A01 T00901023  RH  045%=      5-min Rain = 0
KDMS 190610Z 18005KT 09/M03 A3001 RMK A01 T00941025  RH  044%=      5-min Rain = 0
KDMS 190615Z 18004KT 09/M03 A3001 RMK A01 T00921025  RH  044%=      5-min Rain = 0
KDMS 190620Z 18005KT 09/M02 A3001 RMK A01 T00921024  RH  044%=      5-min Rain = 0
KDMS 190625Z 18005KT 09/M02 A3001 RMK A01 T00941024  RH  044%=      5-min Rain = 0
KDMS 190630Z 19004KT 10/M02 A3001 RMK A01 T00951024  RH  043%=      5-min Rain = 0
KDMS 190635Z 18005KT 10/M03 A3001 RMK A01 T00961025  RH  043%=      5-min Rain = 0
KDMS 190640Z 18005KT 10/M03 A30 RMK A01 T00981025  RH  042%=      5-min Rain = 0
KDMS 190645Z 18005KT 10/M03 A30 RMK A01 T00981025  RH  042%=      5-min Rain = 0
KDMS 190650Z 19005KT 10/M03 A30 RMK A01 T00951025  RH  043%=      5-min Rain = 0
KDMS 190655Z 19004KT 09/M03 A30 RMK A01 T00921025  RH  044%=      5-min Rain = 0
KDMS 190700Z 20004KT 09/M02 A30 RMK A01 T00891024  RH  045%=      5-min Rain = 0
KDMS 190705Z 18005KT 09/M02 A30 RMK A01 T00891022  RH  046%=      5-min Rain = 0
KDMS 190710Z 19006KT 09/M02 A30 RMK A01 T00861021  RH  047%=      5-min Rain = 0
KDMS 190715Z 19005KT 08/M02 A30 RMK A01 T00771021  RH  051%=      5-min Rain = 0
KDMS 190720Z 19004KT 07/M02 A30 RMK A01 T00711021  RH  052%=      5-min Rain = 0
KDMS 190725Z 20003KT 07/M02 A30 RMK A01 T00731020  RH  052%=      5-min Rain = 0
KDMS 190730Z 22004KT 08/M02 A3001 RMK A01 T00811019  RH  050%=      5-min Rain = 0
KDMS 190735Z 22004KT 08/M02 A30 RMK A01 T00841016  RH  050%=      5-min Rain = 0
KDMS 190740Z 22004KT 08/M01 A30 RMK A01 T00841014  RH  051%=      5-min Rain = 0
KDMS 190745Z 21004KT 09/M02 A30 RMK A01 T00861016  RH  049%=      5-min Rain = 0
KDMS 190750Z 22005KT 09/M02 A30 RMK A01 T00901017  RH  048%=      5-min Rain = 0
KDMS 190755Z 22005KT 09/M02 A30 RMK A01 T00901017  RH  048%=      5-min Rain = 0
KDMS 190800Z 22004KT 09/M01 A30 RMK A01 T00881014  RH  049%=      5-min Rain = 0
KDMS 190805Z 21004KT 09/M02 A30 RMK A01 T00891015  RH  049%=      5-min Rain = 0
KDMS 190810Z 21004KT 09/M02 A30 RMK A01 T00921015  RH  048%=      5-min Rain = 0
KDMS 190815Z 21004KT 09/M02 A30 RMK A01 T00931015  RH  047%=      5-min Rain = 0
KDMS 190820Z 21004KT 09/M02 A30 RMK A01 T00931015  RH  047%=      5-min Rain = 0
KDMS 190825Z 21004KT 09/M02 A30 RMK A01 T00931015  RH  047%=      5-min Rain = 0
KDMS 190830Z 21004KT 09/M01 A30 RMK A01 T00911014  RH  048%=      5-min Rain = 0
KDMS 190835Z 19004KT 09/M01 A30 RMK A01 T00891014  RH  049%=      5-min Rain = 0
KDMS 190840Z 20003KT 09/M01 A30 RMK A01 T00871013  RH  050%=      5-min Rain = 0
KDMS 190845Z 21004KT 09/M01 A30 RMK A01 T00851011  RH  051%=      5-min Rain = 0
KDMS 190850Z 21004KT 08/M01 A30 RMK A01 T00821012  RH  052%=      5-min Rain = 0
KDMS 190855Z 21003KT 08/M01 A30 RMK A01 T00791011  RH  053%=      5-min Rain = 0
KDMS 190900Z 21003KT 08/M01 A30 RMK A01 T00781010  RH  054%=      5-min Rain = 0
KDMS 190905Z 21003KT 08/M01 A30 RMK A01 T00781011  RH  054%=      5-min Rain = 0
KDMS 190910Z 21003KT 08/M01 A30 RMK A01 T00791012  RH  053%=      5-min Rain = 0
KDMS 190915Z 21003KT 08/M01 A30 RMK A01 T00811012  RH  052%=      5-min Rain = 0
KDMS 190920Z 21003KT 08/M01 A30 RMK A01 T00831010  RH  052%=      5-min Rain = 0
KDMS 190925Z 21003KT 08/M01 A30 RMK A01 T00831011  RH  052%=      5-min Rain = 0
KDMS 190930Z 21003KT 08/M01 A30 RMK A01 T00821011  RH  052%=      5-min Rain = 0
KDMS 190935Z 22003KT 08/M01 A30 RMK A01 T00801009  RH  054%=      5-min Rain = 0
KDMS 190940Z 22004KT 08/M01 A30 RMK A01 T00791011  RH  053%=      5-min Rain = 0
KDMS 190945Z 23006KT 07/M01 A30 RMK A01 T00741013  RH  054%=      5-min Rain = 0
KDMS 190950Z 23006KT 07/M01 A30 RMK A01 T00671013  RH  057%=      5-min Rain = 0
KDMS 190955Z 22007KT 06/M01 A30 RMK A01 T00641010  RH  060%=      5-min Rain = 0
KDMS 191000Z 21007KT 07/M01 A30 RMK A01 T00671006  RH  060%=      5-min Rain = 0
KDMS 191005Z 20007KT 06/M01 A2999 RMK A01 T00621007  RH  062%=      5-min Rain = 0
KDMS 191010Z 21007KT 06/M01 A2999 RMK A01 T00601005  RH  064%=      5-min Rain = 0
KDMS 191015Z 21007KT 07/M00 A2999 RMK A01 T00651003  RH  062%=      5-min Rain = 0
KDMS 191020Z 21008KT 07/M00 A2999 RMK A01 T00651004  RH  062%=      5-min Rain = 0
KDMS 191025Z 21008KT 06/M01 A2999 RMK A01 T00631005  RH  063%=      5-min Rain = 0
KDMS 191030Z 21007KT 06/M01 A2998 RMK A01 T00601006  RH  063%=      5-min Rain = 0
KDMS 191035Z 21007KT 06/M01 A2998 RMK A01 T00581007  RH  064%=      5-min Rain = 0
KDMS 191040Z 21006KT 06/M01 A2998 RMK A01 T00561009  RH  064%=      5-min Rain = 0
KDMS 191045Z 22007KT 06/M01 A2998 RMK A01 T00561007  RH  065%=      5-min Rain = 0
KDMS 191050Z 22006KT 06/M01 A2998 RMK A01 T00551005  RH  066%=      5-min Rain = 0
KDMS 191055Z 22006KT 06/M00 A2998 RMK A01 T00591004  RH  065%=      5-min Rain = 0
KDMS 191100Z 22006KT 06/M01 A2998 RMK A01 T00551006  RH  065%=      5-min Rain = 0
KDMS 191105Z 22007KT 06/M01 A2998 RMK A01 T00581005  RH  064%=      5-min Rain = 0
KDMS 191110Z 22008KT 06/M01 A2998 RMK A01 T00571006  RH  065%=      5-min Rain = 0
KDMS 191115Z 22009KT 06/M01 A2997 RMK A01 T00551006  RH  066%=      5-min Rain = 0
KDMS 191120Z 21009KT 06/M00 A2997 RMK A01 T00611004  RH  064%=      5-min Rain = 0
KDMS 191125Z 21008KT 07/M01 A2997 RMK A01 T00651005  RH  061%=      5-min Rain = 0
KDMS 191130Z 21008KT 06/M00 A2997 RMK A01 T00631004  RH  063%=      5-min Rain = 0
KDMS 191135Z 21009KT 06/M00 A2997 RMK A01 T00641004  RH  063%=      5-min Rain = 0
KDMS 191140Z 21008KT 07/M00 A2997 RMK A01 T00681004  RH  061%=      5-min Rain = 0
KDMS 191145Z 21008KT 07/M00 A2996 RMK A01 T00681003  RH  061%=      5-min Rain = 0
KDMS 191150Z 21008KT 07/M00 A2996 RMK A01 T00691003  RH  061%=      5-min Rain = 0
KDMS 191155Z 21009KT 07/M00 A2996 RMK A01 T00711003  RH  060%=      5-min Rain = 0
KDMS 191200Z 21009KT 07/M00 A2996 RMK A01 T00691003  RH  061%=      5-min Rain = 0
KDMS 191205Z 21008KT 07/M00 A2996 RMK A01 T00701003  RH  060%=      5-min Rain = 0
KDMS 191210Z 22008KT 07/M00 A2996 RMK A01 T00701002  RH  061%=      5-min Rain = 0
KDMS 191215Z 23007KT 07/M00 A2996 RMK A01 T00661004  RH  062%=      5-min Rain = 0
KDMS 191220Z 23006KT 07/M00 A2996 RMK A01 T00651004  RH  062%=      5-min Rain = 0
KDMS 191225Z 23007KT 07/M01 A2996 RMK A01 T00661006  RH  061%=      5-min Rain = 0
KDMS 191230Z 22005KT 07/M01 A2996 RMK A01 T00661005  RH  061%=      5-min Rain = 0
KDMS 191235Z 22005KT 07/M01 A2996 RMK A01 T00711005  RH  059%=      5-min Rain = 0
KDMS 191240Z 21005KT 07/M01 A2996 RMK A01 T00711006  RH  059%=      5-min Rain = 0
KDMS 191245Z 20005KT 07/M01 A2995 RMK A01 T00711005  RH  059%=      5-min Rain = 0
KDMS 191250Z 20006KT 07/M01 A2995 RMK A01 T00681009  RH  058%=      5-min Rain = 0
KDMS 191255Z 20007KT 06/M01 A2995 RMK A01 T00591013  RH  061%=      5-min Rain = 0
KDMS 191300Z 20009KT 05/M01 A2996 RMK A01 T00511011  RH  065%=      5-min Rain = 0
KDMS 191305Z 20009KT 05/M01 A2996 RMK A01 T00511010  RH  065%=      5-min Rain = 0
KDMS 191310Z 20009KT 05/M01 A2996 RMK A01 T00491010  RH  066%=      5-min Rain = 0
KDMS 191315Z 20009KT 05/M01 A2995 RMK A01 T00521009  RH  065%=      5-min Rain = 0
KDMS 191320Z 20008KT 05/M01 A2995 RMK A01 T00541007  RH  065%=      5-min Rain = 0
KDMS 191325Z 20008KT 05/M01 A2995 RMK A01 T00521009  RH  065%=      5-min Rain = 0
KDMS 191330Z 20008KT 05/M01 A2996 RMK A01 T00501009  RH  066%=      5-min Rain = 0
KDMS 191335Z 20010KT 05/M01 A2996 RMK A01 T00531009  RH  065%=      5-min Rain = 0
KDMS 191340Z 20010KT 06/M01 A2996 RMK A01 T00601008  RH  062%=      5-min Rain = 0
KDMS 191345Z 20010KT 07/M01 A2996 RMK A01 T00651006  RH  061%=      5-min Rain = 0
KDMS 191350Z 21010KT 07/M00 A2996 RMK A01 T00721003  RH  060%=      5-min Rain = 0
KDMS 191355Z 20009KT 08/M00 A2996 RMK A01 T00771002  RH  058%=      5-min Rain = 0
KDMS 191400Z 20010KT 08/M00 A2996 RMK A01 T00791002  RH  057%=      5-min Rain = 0
KDMS 191405Z 20010KT 08/M00 A2996 RMK A01 T00791002  RH  057%=      5-min Rain = 0
KDMS 191410Z 21010KT 08/M00 A2996 RMK A01 T00811001  RH  057%=      5-min Rain = 0
KDMS 191415Z 21009KT 08/00 A2996 RMK A01 T00830002  RH  058%=      5-min Rain = 0
KDMS 191420Z 22009KT 08/00 A2997 RMK A01 T00830001  RH  057%=      5-min Rain = 0
KDMS 191425Z 22009KT 08/00 A2997 RMK A01 T00840002  RH  057%=      5-min Rain = 0
KDMS 191430Z 22008KT 09/01 A2997 RMK A01 T00880005  RH  057%=      5-min Rain = 0
KDMS 191435Z 22008KT 09/00 A2997 RMK A01 T00910004  RH  055%=      5-min Rain = 0
KDMS 191440Z 22008KT 09/01 A2997 RMK A01 T00910005  RH  056%=      5-min Rain = 0
KDMS 191445Z 22008KT 09/01 A2997 RMK A01 T00900005  RH  056%=      5-min Rain = 0
KDMS 191450Z 22009KT 09/01 A2997 RMK A01 T00890005  RH  056%=      5-min Rain = 0
KDMS 191455Z 22009KT 09/01 A2997 RMK A01 T00920007  RH  056%=      5-min Rain = 0
KDMS 191500Z 22009KT 10/01 A2997 RMK A01 T00960006  RH  054%=      5-min Rain = 0
KDMS 191505Z 22009KT 10/01 A2997 RMK A01 T00990007  RH  053%=      5-min Rain = 0
KDMS 191510Z 22010KT 10/01 A2997 RMK A01 T01030007  RH  052%=      5-min Rain = 0
KDMS 191515Z 22010KT 11/01 A2997 RMK A01 T01070007  RH  051%=      5-min Rain = 0
KDMS 191520Z 21010KT 11/01 A2997 RMK A01 T01110008  RH  050%=      5-min Rain = 0
KDMS 191525Z 21010KT 11/01 A2996 RMK A01 T01140010  RH  050%=      5-min Rain = 0
KDMS 191530Z 21010KT 12/01 A2996 RMK A01 T01160011  RH  049%=      5-min Rain = 0
KDMS 191535Z 21011KT 12/01 A2996 RMK A01 T01160009  RH  049%=      5-min Rain = 0
KDMS 191540Z 21011KT 12/01 A2996 RMK A01 T01190011  RH  048%=      5-min Rain = 0
KDMS 191545Z 20012KT 13/01 A2996 RMK A01 T01250011  RH  047%=      5-min Rain = 0
KDMS 191550Z 21012KT 13/01 A2996 RMK A01 T01260011  RH  046%=      5-min Rain = 0
KDMS 191555Z 21012KT 13/01 A2996 RMK A01 T01290013  RH  046%=      5-min Rain = 0
KDMS 191600Z 21013KT 13/01 A2996 RMK A01 T01290014  RH  046%=      5-min Rain = 0
KDMS 191605Z 21012KT 13/02 A2996 RMK A01 T01330016  RH  046%=      5-min Rain = 0
KDMS 191610Z 20013KT 13/01 A2996 RMK A01 T01310012  RH  045%=      5-min Rain = 0
KDMS 191615Z 21012KT 13/02 A2996 RMK A01 T01300015  RH  046%=      5-min Rain = 0
KDMS 191620Z 21012KT 13/02 A2996 RMK A01 T01310018  RH  047%=      5-min Rain = 0
KDMS 191625Z 20010KT 14/02 A2996 RMK A01 T01350024  RH  048%=      5-min Rain = 0
KDMS 191630Z 19012KT 15/02 A2996 RMK A01 T01450024  RH  045%=      5-min Rain = 0
KDMS 191635Z 19013KT 15/02 A2995 RMK A01 T01520021  RH  042%=      5-min Rain = 0
KDMS 191640Z 19014KT 16/02 A2995 RMK A01 T01580021  RH  040%=      5-min Rain = 0
KDMS 191645Z 19013KT 16/02 A2995 RMK A01 T01600021  RH  040%=      5-min Rain = 0
KDMS 191650Z 19015KT 17/02 A2995 RMK A01 T01660021  RH  038%=      5-min Rain = 0
KDMS 191655Z 19015KT 17/02 A2995 RMK A01 T01720021  RH  037%=      5-min Rain = 0
KDMS 191700Z 18016KT 18/02 A2995 RMK A01 T01760021  RH  036%=      5-min Rain = 0
KDMS 191705Z 18016KT 18/02 A2994 RMK A01 T01810022  RH  035%=      5-min Rain = 0
KDMS 191710Z 18016KT 18/02 A2994 RMK A01 T01800017  RH  034%=      5-min Rain = 0
KDMS 191715Z 18016KT 18/02 A2994 RMK A01 T01790016  RH  034%=      5-min Rain = 0
KDMS 191720Z 18015KT 18/02 A2994 RMK A01 T01810021  RH  035%=      5-min Rain = 0
KDMS 191725Z 19015G20KT 19/02 A2994 RMK A01 T01850020  RH  034%=      5-min Rain = 0
KDMS 191730Z 20017KT 19/01 A2993 RMK A01 T01850014  RH  032%=      5-min Rain = 0
KDMS 191735Z 19017KT 19/02 A2993 RMK A01 T01870015  RH  032%=      5-min Rain = 0
KDMS 191740Z 20017KT 19/02 A2993 RMK A01 T01900016  RH  032%=      5-min Rain = 0
KDMS 191745Z 19016G21KT 19/02 A2992 RMK A01 T01930021  RH  032%=      5-min Rain = 0
KDMS 191750Z 19015G20KT 19/02 A2992 RMK A01 T01940022  RH  032%=      5-min Rain = 0
KDMS 191755Z 20016KT 20/02 A2992 RMK A01 T01960016  RH  030%=      5-min Rain = 0
KDMS 191800Z 20016KT 20/01 A2991 RMK A01 T01990014  RH  030%=      5-min Rain = 0
KDMS 191805Z 19016KT 20/02 A2991 RMK A01 T02030017  RH  030%=      5-min Rain = 0
KDMS 191810Z 19017G23KT 21/02 A2991 RMK A01 T02080015  RH  028%=      5-min Rain = 0
KDMS 191815Z 20017KT 21/01 A299 RMK A01 T02110013  RH  027%=      5-min Rain = 0
KDMS 191820Z 19017KT 21/01 A299 RMK A01 T02120009  RH  026%=      5-min Rain = 0
KDMS 191825Z 20016KT 21/01 A299 RMK A01 T02140009  RH  026%=      5-min Rain = 0
KDMS 191830Z 19015G22KT 22/01 A299 RMK A01 T02160009  RH  026%=      5-min Rain = 0
KDMS 191835Z 19017G22KT 22/01 A2989 RMK A01 T02180008  RH  025%=      5-min Rain = 0
KDMS 191840Z 19017G23KT 22/01 A2989 RMK A01 T02210007  RH  025%=      5-min Rain = 0
KDMS 191845Z 20018G24KT 22/00 A2988 RMK A01 T02230003  RH  023%=      5-min Rain = 0
KDMS 191850Z 22018G23KT 22/M00 A2988 RMK A01 T02221002  RH  023%=      5-min Rain = 0
KDMS 191855Z 21018G23KT 22/00 A2988 RMK A01 T02240002  RH  023%=      5-min Rain = 0
KDMS 191900Z 21020G25KT 22/00 A2988 RMK A01 T02240002  RH  023%=      5-min Rain = 0
KDMS 191905Z 21017G23KT 23/01 A2987 RMK A01 T02250005  RH  024%=      5-min Rain = 0
KDMS 191910Z 21018G23KT 23/01 A2987 RMK A01 T02270006  RH  023%=      5-min Rain = 0
KDMS 191915Z 21019G25KT 22/00 A2987 RMK A01 T02240002  RH  023%=      5-min Rain = 0
KDMS 191920Z 21017G22KT 23/01 A2987 RMK A01 T02260005  RH  023%=      5-min Rain = 0
KDMS 191925Z 20018G26KT 23/00 A2986 RMK A01 T02290003  RH  023%=      5-min Rain = 0
KDMS 191930Z 21017G24KT 23/00 A2986 RMK A01 T02270001  RH  023%=      5-min Rain = 0
KDMS 191935Z 20019G24KT 23/M00 A2986 RMK A01 T02261001  RH  022%=      5-min Rain = 0
KDMS 191940Z 20017KT 22/00 A2985 RMK A01 T022200-0  RH  023%=      5-min Rain = 0
KDMS 191945Z 20020KT 23/00 A2985 RMK A01 T02310001  RH  022%=      5-min Rain = 0
KDMS 191950Z 21019G26KT 23/M01 A2985 RMK A01 T02271005  RH  022%=      5-min Rain = 0
KDMS 191955Z 21020G25KT 22/M01 A2984 RMK A01 T02231009  RH  021%=      5-min Rain = 0
KDMS 192000Z 20017G22KT 22/M01 A2984 RMK A01 T02211006  RH  022%=      5-min Rain = 0
KDMS 192005Z 21017KT 22/M00 A2984 RMK A01 T02231002  RH  023%=      5-min Rain = 0
KDMS 192010Z 21017G23KT 23/M00 A2984 RMK A01 T02281002  RH  022%=      5-min Rain = 0
KDMS 192015Z 20018G25KT 23/M00 A2984 RMK A01 T02291001  RH  022%=      5-min Rain = 0
KDMS 192020Z 20020KT 22/M00 A2984 RMK A01 T02241004  RH  022%=      5-min Rain = 0
KDMS 192025Z 20016G21KT 22/M00 A2983 RMK A01 T02221001  RH  023%=      5-min Rain = 0
KDMS 192030Z 20016G23KT 22/00 A2983 RMK A01 T02220001  RH  023%=      5-min Rain = 0
KDMS 192035Z 20015KT 23/00 A2983 RMK A01 T02260003  RH  023%=      5-min Rain = 0
KDMS 192040Z 20017KT 23/00 A2983 RMK A01 T02310001  RH  022%=      5-min Rain = 0
KDMS 192045Z 20017G22KT 23/M00 A2982 RMK A01 T02301002  RH  022%=      5-min Rain = 0
KDMS 192050Z 20016KT 23/00 A2982 RMK A01 T02280000  RH  022%=      5-min Rain = 0
KDMS 192055Z 20016G22KT 23/00 A2982 RMK A01 T022800-0  RH  022%=      5-min Rain = 0
KDMS 192100Z 21018KT 23/M00 A2982 RMK A01 T02281003  RH  022%=      5-min Rain = 0
KDMS 192105Z 21017G22KT 23/M01 A2982 RMK A01 T02251005  RH  022%=      5-min Rain = 0
KDMS 192110Z 20017KT 23/M00 A2981 RMK A01 T02271004  RH  022%=      5-min Rain = 0
KDMS 192115Z 20016G21KT 23/00 A2981 RMK A01 T02280002  RH  023%=      5-min Rain = 0
KDMS 192120Z 21016G21KT 23/00 A2981 RMK A01 T022900-0  RH  022%=      5-min Rain = 0
KDMS 192125Z 20015KT 23/00 A2981 RMK A01 T02280001  RH  022%=      5-min Rain = 0
KDMS 192130Z 20015KT 23/00 A2981 RMK A01 T02290002  RH  023%=      5-min Rain = 0
KDMS 192135Z 20014KT 23/00 A2981 RMK A01 T02310002  RH  022%=      5-min Rain = 0
KDMS 192140Z 21015G20KT 23/M00 A2981 RMK A01 T02331001  RH  021%=      5-min Rain = 0
KDMS 192145Z 20015G21KT 23/M00 A298 RMK A01 T02331001  RH  021%=      5-min Rain = 0
KDMS 192150Z 20016G21KT 23/M00 A298 RMK A01 T02331004  RH  021%=      5-min Rain = 0
KDMS 192155Z 21016KT 23/M01 A298 RMK A01 T02341005  RH  021%=      5-min Rain = 0
KDMS 192200Z 20014G20KT 23/00 A298 RMK A01 T02340002  RH  022%=      5-min Rain = 0
KDMS 192205Z 20016G22KT 23/00 A298 RMK A01 T023300-0  RH  022%=      5-min Rain = 0
KDMS 192210Z 19016KT 23/00 A298 RMK A01 T02290002  RH  023%=      5-min Rain = 0
KDMS 192215Z 20014G20KT 23/00 A298 RMK A01 T02280004  RH  023%=      5-min Rain = 0
KDMS 192220Z 20015KT 23/00 A298 RMK A01 T02280002  RH  023%=      5-min Rain = 0
KDMS 192225Z 19013KT 23/01 A298 RMK A01 T02280007  RH  024%=      5-min Rain = 0
KDMS 192230Z 20014KT 23/01 A298 RMK A01 T02250007  RH  024%=      5-min Rain = 0
KDMS 192235Z 19013KT 22/00 A298 RMK A01 T02220004  RH  024%=      5-min Rain = 0
KDMS 192240Z 19012KT 22/01 A298 RMK A01 T02200005  RH  024%=      5-min Rain = 0
KDMS 192245Z 20011KT 22/01 A298 RMK A01 T02180005  RH  025%=      5-min Rain = 0
KDMS 192250Z 19010KT 22/01 A2979 RMK A01 T02180007  RH  025%=      5-min Rain = 0
KDMS 192255Z 19009KT 21/01 A2979 RMK A01 T02140010  RH  026%=      5-min Rain = 0
KDMS 192300Z 19009KT 21/01 A2979 RMK A01 T02050013  RH  028%=      5-min Rain = 0
KDMS 192305Z 19009KT 20/01 A298 RMK A01 T01960013  RH  030%=      5-min Rain = 0
KDMS 192310Z 18008KT 19/02 A298 RMK A01 T01910019  RH  032%=      5-min Rain = 0
KDMS 192315Z 18010KT 18/02 A298 RMK A01 T01790019  RH  035%=      5-min Rain = 0
KDMS 192320Z 18011KT 17/02 A298 RMK A01 T01730016  RH  035%=      5-min Rain = 0
KDMS 192325Z 19011KT 17/02 A298 RMK A01 T01700015  RH  036%=      5-min Rain = 0
KDMS 192330Z 19011KT 17/01 A298 RMK A01 T01690012  RH  035%=      5-min Rain = 0
KDMS 192335Z 19010KT 17/01 A298 RMK A01 T01650011  RH  036%=      5-min Rain = 0
KDMS 192340Z 19011KT 16/01 A298 RMK A01 T01610010  RH  037%=      5-min Rain = 0
KDMS 192345Z 19011KT 16/01 A298 RMK A01 T01610007  RH  036%=      5-min Rain = 0
KDMS 192350Z 19011KT 16/01 A298 RMK A01 T01590007  RH  036%=      5-min Rain = 0
KDMS 192355Z 19010KT 16/01 A298 RMK A01 T01580006  RH  036%=      5-min Rain = 0
KDMS 200000Z 19011KT 16/01 A298 RMK A01 T01560005  RH  036%=      5-min Rain = 0
KDMS 200005Z 18011KT 16/00 A2981 RMK A01 T01560004  RH  036%=      5-min Rain = 0
KDMS 200010Z 18011KT 15/01 A2981 RMK A01 T01510005  RH  037%=      5-min Rain = 0
KDMS 200015Z 18012KT 15/01 A2981 RMK A01 T01510005  RH  038%=      5-min Rain = 0
KDMS 200020Z 18011KT 15/00 A2981 RMK A01 T01530004  RH  037%=      5-min Rain = 0
KDMS 200025Z 18011KT 15/01 A2981 RMK A01 T01500005  RH  038%=      5-min Rain = 0
KDMS 200030Z 18009KT 14/01 A2981 RMK A01 T01440007  RH  040%=      5-min Rain = 0
KDMS 200035Z 18008KT 13/01 A2981 RMK A01 T01330008  RH  043%=      5-min Rain = 0
KDMS 200040Z 18010KT 13/01 A2981 RMK A01 T01260008  RH  045%=      5-min Rain = 0
KDMS 200045Z 18009KT 13/01 A2981 RMK A01 T01270008  RH  045%=      5-min Rain = 0
KDMS 200050Z 18009KT 13/01 A2981 RMK A01 T01280008  RH  044%=      5-min Rain = 0
KDMS 200055Z 18009KT 13/01 A2981 RMK A01 T01250008  RH  045%=      5-min Rain = 0
KDMS 200100Z 17009KT 12/01 A2981 RMK A01 T01220007  RH  046%=      5-min Rain = 0
KDMS 200105Z 17010KT 12/01 A2981 RMK A01 T01180007  RH  047%=      5-min Rain = 0
KDMS 200110Z 17010KT 12/01 A2981 RMK A01 T01150007  RH  048%=      5-min Rain = 0
KDMS 200115Z 17010KT 12/00 A2981 RMK A01 T01160004  RH  047%=      5-min Rain = 0
KDMS 200120Z 16011KT 12/00 A2981 RMK A01 T01180001  RH  045%=      5-min Rain = 0
KDMS 200125Z 16010KT 12/00 A2981 RMK A01 T01170001  RH  045%=      5-min Rain = 0
KDMS 200130Z 17010KT 11/00 A2981 RMK A01 T01130000  RH  046%=      5-min Rain = 0
KDMS 200135Z 18010KT 11/00 A2981 RMK A01 T011200-0  RH  047%=      5-min Rain = 0
KDMS 200140Z 17011KT 12/M00 A2981 RMK A01 T01181002  RH  044%=      5-min Rain = 0
KDMS 200145Z 17012KT 12/M00 A2981 RMK A01 T01201003  RH  043%=      5-min Rain = 0
KDMS 200150Z 17011KT 12/M00 A2981 RMK A01 T01211004  RH  042%=      5-min Rain = 0
KDMS 200155Z 17011KT 12/M01 A2981 RMK A01 T01171005  RH  043%=      5-min Rain = 0
KDMS 200200Z 17012KT 12/M01 A2981 RMK A01 T01161005  RH  044%=      5-min Rain = 0
KDMS 200205Z 17012KT 12/M00 A2981 RMK A01 T01171004  RH  044%=      5-min Rain = 0
KDMS 200210Z 17013KT 12/M00 A2981 RMK A01 T01151004  RH  044%=      5-min Rain = 0
KDMS 200215Z 18013KT 12/M01 A2981 RMK A01 T01161005  RH  044%=      5-min Rain = 0
KDMS 200220Z 18012KT 11/M01 A2981 RMK A01 T01131005  RH  044%=      5-min Rain = 0
KDMS 200225Z 18011KT 11/M01 A2981 RMK A01 T01111005  RH  045%=      5-min Rain = 0
KDMS 200230Z 18010KT 11/M00 A2981 RMK A01 T01061004  RH  047%=      5-min Rain = 0
KDMS 200235Z 19011KT 10/M00 A2981 RMK A01 T01021002  RH  049%=      5-min Rain = 0
KDMS 200240Z 19012KT 11/M00 A2981 RMK A01 T01051003  RH  048%=      5-min Rain = 0
KDMS 200245Z 19012KT 11/M00 A2981 RMK A01 T01091004  RH  046%=      5-min Rain = 0
KDMS 200250Z 19012KT 11/M01 A2981 RMK A01 T01111005  RH  045%=      5-min Rain = 0
KDMS 200255Z 19013KT 11/M00 A2982 RMK A01 T01101004  RH  046%=      5-min Rain = 0
KDMS 200300Z 19012KT 11/M00 A2982 RMK A01 T01081004  RH  046%=      5-min Rain = 0
KDMS 200305Z 20012KT 11/M00 A2981 RMK A01 T01081003  RH  047%=      5-min Rain = 0
KDMS 200310Z 20013KT 11/M00 A2981 RMK A01 T01101004  RH  046%=      5-min Rain = 0
KDMS 200315Z 20013KT 12/M00 A2981 RMK A01 T01151004  RH  044%=      5-min Rain = 0
KDMS 200320Z 20013KT 12/M01 A2981 RMK A01 T01231005  RH  042%=      5-min Rain = 0
KDMS 200325Z 20014KT 13/M01 A2981 RMK A01 T01261005  RH  041%=      5-min Rain = 0
KDMS 200330Z 20015KT 13/M01 A2981 RMK A01 T01301005  RH  040%=      5-min Rain = 0
KDMS 200335Z 20015G22KT 13/M01 A2981 RMK A01 T01321005  RH  039%=      5-min Rain = 0
KDMS 200340Z 20016KT 14/M01 A2981 RMK A01 T01351007  RH  038%=      5-min Rain = 0
KDMS 200345Z 20015G20KT 14/M01 A2981 RMK A01 T01351007  RH  038%=      5-min Rain = 0
KDMS 200350Z 20016KT 14/M01 A2981 RMK A01 T01351007  RH  038%=      5-min Rain = 0
KDMS 200355Z 20016KT 14/M01 A2981 RMK A01 T01361008  RH  037%=      5-min Rain = 0
KDMS 200400Z 21015KT 14/M01 A2981 RMK A01 T01371008  RH  037%=      5-min Rain = 0
KDMS 200405Z 21013KT 13/M01 A2981 RMK A01 T01331007  RH  038%=      5-min Rain = 0
KDMS 200410Z 20012KT 13/M01 A2981 RMK A01 T01291006  RH  040%=      5-min Rain = 0
KDMS 200415Z 20014KT 13/M01 A2981 RMK A01 T01271006  RH  040%=      5-min Rain = 0
KDMS 200420Z 20015KT 13/M01 A2981 RMK A01 T01251007  RH  041%=      5-min Rain = 0
KDMS 200425Z 20013KT 12/M01 A2982 RMK A01 T01201006  RH  042%=      5-min Rain = 0
KDMS 200430Z 20012KT 11/M01 A2982 RMK A01 T01141006  RH  044%=      5-min Rain = 0
KDMS 200435Z 20012KT 11/M01 A2982 RMK A01 T01111006  RH  045%=      5-min Rain = 0
KDMS 200440Z 20012KT 11/M01 A2982 RMK A01 T01111006  RH  045%=      5-min Rain = 0
KDMS 200445Z 20012KT 11/M01 A2982 RMK A01 T01091006  RH  046%=      5-min Rain = 0
KDMS 200450Z 20011KT 11/M01 A2982 RMK A01 T01071005  RH  046%=      5-min Rain = 0
KDMS 200455Z 20011KT 11/M01 A2981 RMK A01 T01071005  RH  046%=      5-min Rain = 0
KDMS 200500Z 20012KT 11/M01 A2981 RMK A01 T01101006  RH  045%=      5-min Rain = 0
KDMS 200505Z 20012KT 11/M01 A2981 RMK A01 T01101006  RH  045%=      5-min Rain = 0
KDMS 200510Z 20012KT 11/M01 A2981 RMK A01 T01071006  RH  046%=      5-min Rain = 0
KDMS 200515Z 20013KT 11/M01 A2981 RMK A01 T01111006  RH  045%=      5-min Rain = 0
KDMS 200520Z 20014KT 12/M01 A2981 RMK A01 T01151007  RH  043%=      5-min Rain = 0
KDMS 200525Z 20016KT 12/M01 A2981 RMK A01 T01191007  RH  042%=      5-min Rain = 0
KDMS 200530Z 20016KT 12/M01 A2981 RMK A01 T01221007  RH  041%=      5-min Rain = 0
KDMS 200535Z 20015KT 12/M01 A2981 RMK A01 T01231007  RH  041%=      5-min Rain = 0
KDMS 200540Z 20014G19KT 12/M01 A2981 RMK A01 T01231007  RH  041%=      5-min Rain = 0
KDMS 200545Z 20015KT 12/M01 A2981 RMK A01 T01241006  RH  041%=      5-min Rain = 0
KDMS 200550Z 20013G18KT 12/M01 A2981 RMK A01 T01231006  RH  041%=      5-min Rain = 0
KDMS 200555Z 20013KT 12/M01 A298 RMK A01 T01211005  RH  042%=      5-min Rain = 0

Page generated in 0.0098 seconds.